Accueil
METAR-TAF:

METAR-TAF

Aéroports :

Niamey, Niger

Aéroport international Diori Hamani

latitude: 13-29N, longitude: 002-10E, altitude: 223 m

Observation

Le bulletin a été fait il y a 22 minutes, à 20:00 UTC
Vent 3 kt de direction variable
Température 37°C
Humidité 8%
Pression 1008 hPa
Visibilité: 4000 m
poussière généralisée

METAR: DRRN 222000Z VRB03KT 4000 DU NSC 37/M03 Q1008 NOSIG

Heure: 21:22 (20:22 UTC)

Prévision

Le bulletin a été fait il y a 3 heures et 22 minutes, à 17:00 UTC
Prévision valable du 22 à 18 UTC au 23 à 24 UTC
Vent 8 kt de nord-ouest
Visibilité: 8000 m
Temporairement
du 22 à 18 UTC au 22 à 22 UTC
Visibilité: 4000 m
poussière généralisée
Temporairement
du 23 à 06 UTC au 23 à 10 UTC
Visibilité: 4000 m
poussière généralisée

TAF: DRRN 221700Z 2218/2324 32008KT 8000 NSC TEMPO 2218/2222 4000 DU TEMPO 2306/2310 4000 DU

Observations et prévisions météorologiques de plus de 4000 aéroports (messages METAR et TAF).

Les stations disponibles sont représentées par des disques jaunes et rouges sur la carte.

Passer la souris dessus pour voir le nom de la station.

Cliquer dessus pour voir les observations et prévisions météorologiques.

Pour changer de carte: cliquez sur les boutons verts avec une croix noire pour zoomer, sur le bouton vert avec un tiret pour effectuer un zoom arrière, ou sur les flèches vertes pour les cartes adjacentes.


METAR-TAF: